Time,TemperatureF,DewpointF,PressureIn,WindDirection,WindDirectionDegrees,WindSpeedMPH,WindSpeedGustMPH,Humidity,HourlyPrecipIn,Conditions,Clouds,dailyrainin,SoftwareType,DateUTC
2013-02-03 00:02:00,23.5,10.2,30.05,NW,315,0.0,0.0,56,0.00,,,0.00,pywws,2013-02-03 05:02:00,
2013-02-03 00:03:00,23.5,10.2,30.04,NW,315,0.0,0.0,56,0.00,,,0.00,pywws,2013-02-03 05:03:00,
2013-02-03 00:04:00,23.5,10.2,30.05,West,270,0.0,0.0,56,0.00,,,0.00,pywws,2013-02-03 05:04:00,
2013-02-03 00:10:00,23.2,10.6,30.05,South,180,0.0,0.0,58,0.00,,,0.00,pywws,2013-02-03 05:10:00,
2013-02-03 00:15:00,23.2,11.0,30.04,SW,225,0.0,0.0,59,0.00,,,0.00,pywws,2013-02-03 05:15:00,
2013-02-03 00:22:00,23.2,11.4,30.04,West,270,0.0,0.0,60,0.00,,,0.00,pywws,2013-02-03 05:22:00,
2013-02-03 00:27:00,23.0,11.6,30.04,West,270,0.0,0.0,61,0.00,,,0.00,pywws,2013-02-03 05:27:00,
2013-02-03 00:33:00,23.0,11.9,30.04,SW,225,0.0,0.0,62,0.00,,,0.00,pywws,2013-02-03 05:33:00,
2013-02-03 00:39:00,22.8,12.5,30.03,West,270,0.0,0.0,64,0.00,,,0.00,pywws,2013-02-03 05:39:00,
2013-02-03 00:44:00,22.8,12.5,30.03,West,270,0.0,0.0,64,0.00,,,0.00,pywws,2013-02-03 05:44:00,
2013-02-03 00:50:00,22.8,12.8,30.03,South,180,0.0,0.0,65,0.00,,,0.00,pywws,2013-02-03 05:50:00,
2013-02-03 00:55:00,22.5,12.5,30.03,West,270,0.0,0.0,65,0.00,,,0.00,pywws,2013-02-03 05:55:00,
2013-02-03 01:01:00,22.5,12.5,30.03,West,270,0.0,0.0,65,0.00,,,0.00,pywws,2013-02-03 06:01:00,
2013-02-03 01:07:00,22.5,12.5,30.03,West,270,0.0,0.0,65,0.00,,,0.00,pywws,2013-02-03 06:07:00,
2013-02-03 01:13:00,22.5,12.8,30.02,West,270,0.0,0.0,66,0.00,,,0.00,pywws,2013-02-03 06:13:00,
2013-02-03 01:19:00,22.3,12.7,30.03,West,270,0.0,0.0,66,0.00,,,0.00,pywws,2013-02-03 06:19:00,
2013-02-03 01:25:00,22.3,12.7,30.03,North,0,0.0,0.0,66,0.00,,,0.00,pywws,2013-02-03 06:25:00,
2013-02-03 01:31:00,22.3,12.7,30.03,West,270,0.0,0.0,66,0.00,,,0.00,pywws,2013-02-03 06:31:00,
2013-02-03 01:36:00,22.3,13.0,30.02,South,180,0.0,0.0,67,0.00,,,0.00,pywws,2013-02-03 06:36:00,
2013-02-03 01:42:00,22.3,13.0,30.02,South,180,0.0,0.0,67,0.00,,,0.00,pywws,2013-02-03 06:42:00,
2013-02-03 01:47:00,22.3,13.3,30.02,South,180,0.0,0.0,68,0.00,,,0.00,pywws,2013-02-03 06:47:00,
2013-02-03 01:54:00,22.3,13.3,30.02,South,180,0.0,0.0,68,0.00,,,0.00,pywws,2013-02-03 06:54:00,
2013-02-03 01:59:00,21.9,13.0,30.02,North,0,0.0,0.0,68,0.00,,,0.00,pywws,2013-02-03 06:59:00,
2013-02-03 02:05:00,21.9,13.0,30.01,NW,315,0.0,0.0,68,0.00,,,0.00,pywws,2013-02-03 07:05:00,
2013-02-03 02:11:00,21.9,13.0,30.01,NW,315,0.0,0.0,68,0.00,,,0.00,pywws,2013-02-03 07:11:00,
2013-02-03 02:16:00,21.9,13.0,30.01,West,270,0.0,0.0,68,0.00,,,0.00,pywws,2013-02-03 07:16:00,
2013-02-03 02:22:00,21.9,13.0,30.00,NW,315,0.0,0.0,68,0.00,,,0.00,pywws,2013-02-03 07:22:00,
2013-02-03 02:27:00,21.7,12.5,30.00,NW,315,0.0,0.0,67,0.00,,,0.00,pywws,2013-02-03 07:27:00,
2013-02-03 02:33:00,21.7,12.8,29.99,NW,315,0.0,0.0,68,0.00,,,0.00,pywws,2013-02-03 07:33:00,
2013-02-03 02:39:00,21.6,12.7,29.99,NW,315,0.0,0.0,68,0.00,,,0.00,pywws,2013-02-03 07:39:00,
2013-02-03 02:44:00,21.7,12.8,29.98,South,180,0.0,0.0,68,0.00,,,0.00,pywws,2013-02-03 07:44:00,
2013-02-03 02:50:00,21.7,12.8,29.98,West,270,0.0,0.0,68,0.00,,,0.00,pywws,2013-02-03 07:50:00,
2013-02-03 02:55:00,21.6,12.7,29.98,North,0,0.0,0.0,68,0.00,,,0.00,pywws,2013-02-03 07:55:00,
2013-02-03 03:01:00,21.7,12.8,29.98,West,270,0.0,0.0,68,0.00,,,0.00,pywws,2013-02-03 08:01:00,
2013-02-03 03:07:00,21.7,12.8,29.98,North,0,0.0,0.0,68,0.00,,,0.00,pywws,2013-02-03 08:07:00,
2013-02-03 03:12:00,21.6,12.7,29.98,South,180,0.0,0.0,68,0.00,,,0.00,pywws,2013-02-03 08:12:00,
2013-02-03 03:18:00,21.7,12.5,29.98,West,270,0.0,0.0,67,0.00,,,0.00,pywws,2013-02-03 08:18:00,
2013-02-03 03:23:00,21.6,12.3,29.98,North,0,0.0,0.0,67,0.00,,,0.00,pywws,2013-02-03 08:23:00,
2013-02-03 03:29:00,21.4,12.2,29.98,West,270,0.0,0.0,67,0.00,,,0.00,pywws,2013-02-03 08:29:00,
2013-02-03 03:35:00,21.4,12.2,29.98,West,270,0.0,0.0,67,0.00,,,0.00,pywws,2013-02-03 08:35:00,
2013-02-03 03:40:00,21.4,12.2,29.98,North,0,0.0,0.0,67,0.00,,,0.00,pywws,2013-02-03 08:40:00,
2013-02-03 03:46:00,21.4,11.8,29.98,West,270,0.0,0.0,66,0.00,,,0.00,pywws,2013-02-03 08:46:00,
2013-02-03 03:51:00,21.4,11.8,29.97,West,270,0.0,0.0,66,0.00,,,0.00,pywws,2013-02-03 08:51:00,
2013-02-03 03:57:00,21.4,11.8,29.98,North,0,0.0,0.0,66,0.00,,,0.00,pywws,2013-02-03 08:57:00,
2013-02-03 04:03:00,21.4,12.2,29.98,North,0,0.0,0.0,67,0.00,,,0.00,pywws,2013-02-03 09:03:00,
2013-02-03 04:08:00,21.4,12.2,29.97,North,0,0.0,0.0,67,0.00,,,0.00,pywws,2013-02-03 09:08:00,
2013-02-03 04:14:00,21.2,12.0,29.97,North,0,0.0,0.0,67,0.00,,,0.00,pywws,2013-02-03 09:14:00,
2013-02-03 04:19:00,21.2,12.0,29.97,North,0,0.0,0.0,67,0.00,,,0.00,pywws,2013-02-03 09:19:00,
2013-02-03 04:25:00,21.0,12.1,29.97,North,0,0.0,0.0,68,0.00,,,0.00,pywws,2013-02-03 09:25:00,
2013-02-03 04:31:00,21.0,12.1,29.97,North,0,0.0,0.0,68,0.00,,,0.00,pywws,2013-02-03 09:31:00,
2013-02-03 04:36:00,21.0,12.1,29.97,North,0,0.0,0.0,68,0.00,,,0.00,pywws,2013-02-03 09:36:00,
2013-02-03 04:42:00,21.0,12.1,29.97,North,0,0.0,0.0,68,0.00,,,0.00,pywws,2013-02-03 09:42:00,
2013-02-03 04:47:00,21.0,12.5,29.97,North,0,0.0,0.0,69,0.00,,,0.00,pywws,2013-02-03 09:47:00,
2013-02-03 04:53:00,21.0,12.5,29.97,North,0,0.0,0.0,69,0.00,,,0.00,pywws,2013-02-03 09:53:00,
2013-02-03 04:59:00,20.8,12.3,29.97,North,0,0.0,0.0,69,0.00,,,0.00,pywws,2013-02-03 09:59:00,
2013-02-03 05:04:00,20.8,12.3,29.97,North,0,0.0,0.0,69,0.00,,,0.00,pywws,2013-02-03 10:04:00,
2013-02-03 05:10:00,20.8,12.3,29.97,North,0,0.0,0.0,69,0.00,,,0.00,pywws,2013-02-03 10:10:00,
2013-02-03 05:15:00,20.8,12.6,29.96,North,0,0.0,0.0,70,0.00,,,0.00,pywws,2013-02-03 10:15:00,
2013-02-03 05:21:00,20.7,12.5,29.96,North,0,0.0,0.0,70,0.00,,,0.00,pywws,2013-02-03 10:21:00,
2013-02-03 05:27:00,20.5,12.3,29.96,North,0,0.0,0.0,70,0.00,,,0.00,pywws,2013-02-03 10:27:00,
2013-02-03 05:32:00,20.1,11.9,29.96,North,0,0.0,0.0,70,0.00,,,0.00,pywws,2013-02-03 10:32:00,
2013-02-03 05:38:00,19.8,11.6,29.97,North,0,0.0,0.0,70,0.00,,,0.00,pywws,2013-02-03 10:38:00,
2013-02-03 05:43:00,19.6,11.4,29.96,North,0,0.0,0.0,70,0.00,,,0.00,pywws,2013-02-03 10:43:00,
2013-02-03 05:49:00,19.6,11.7,29.96,North,0,0.0,0.0,71,0.00,,,0.00,pywws,2013-02-03 10:49:00,
2013-02-03 05:55:00,19.6,12.0,29.96,North,0,0.0,0.0,72,0.00,,,0.00,pywws,2013-02-03 10:55:00,
2013-02-03 06:00:00,19.2,10.4,29.96,North,0,0.0,0.0,68,0.00,,,0.00,pywws,2013-02-03 11:00:00,
2013-02-03 06:06:00,18.7,9.9,29.96,North,0,0.0,0.0,68,0.00,,,0.00,pywws,2013-02-03 11:06:00,
2013-02-03 06:11:00,18.3,9.9,29.95,North,0,0.0,0.0,69,0.00,,,0.00,pywws,2013-02-03 11:11:00,
2013-02-03 06:17:00,18.0,9.5,29.95,North,0,0.0,0.0,69,0.00,,,0.00,pywws,2013-02-03 11:17:00,
2013-02-03 06:23:00,17.8,9.7,29.95,North,0,0.0,0.0,70,0.00,,,0.00,pywws,2013-02-03 11:23:00,
2013-02-03 06:28:00,17.2,9.5,29.95,North,0,0.0,0.0,71,0.00,,,0.00,pywws,2013-02-03 11:28:00,
2013-02-03 06:34:00,17.1,9.3,29.95,North,0,0.0,0.0,71,0.00,,,0.00,pywws,2013-02-03 11:34:00,
2013-02-03 06:39:00,16.7,9.3,29.94,North,0,0.0,0.0,72,0.00,,,0.00,pywws,2013-02-03 11:39:00,
2013-02-03 06:45:00,16.7,9.3,29.94,North,0,0.0,0.0,72,0.00,,,0.00,pywws,2013-02-03 11:45:00,
2013-02-03 06:51:00,16.0,8.6,29.94,North,0,0.0,0.0,72,0.00,,,0.00,pywws,2013-02-03 11:51:00,
2013-02-03 06:56:00,15.8,8.4,29.95,North,0,0.0,0.0,72,0.00,,,0.00,pywws,2013-02-03 11:56:00,
2013-02-03 07:02:00,15.3,8.2,29.95,North,0,0.0,0.0,73,0.00,,,0.00,pywws,2013-02-03 12:02:00,
2013-02-03 07:07:00,15.6,8.5,29.95,North,0,0.0,0.0,73,0.00,,,0.00,pywws,2013-02-03 12:07:00,
2013-02-03 07:13:00,15.8,8.4,29.95,North,0,0.0,0.0,72,0.00,,,0.00,pywws,2013-02-03 12:13:00,
2013-02-03 07:19:00,15.8,8.4,29.95,North,0,0.0,0.0,72,0.00,,,0.00,pywws,2013-02-03 12:19:00,
2013-02-03 07:24:00,16.0,8.6,29.95,North,0,0.0,0.0,72,0.00,,,0.00,pywws,2013-02-03 12:24:00,
2013-02-03 07:30:00,16.0,8.6,29.95,North,0,0.0,0.0,72,0.00,,,0.00,pywws,2013-02-03 12:30:00,
2013-02-03 07:35:00,16.0,8.6,29.95,North,0,0.0,0.0,72,0.00,,,0.00,pywws,2013-02-03 12:35:00,
2013-02-03 07:42:00,16.2,9.1,29.96,North,0,0.0,0.0,73,0.00,,,0.00,pywws,2013-02-03 12:42:00,
2013-02-03 07:47:00,16.5,9.4,29.96,North,0,0.0,0.0,73,0.00,,,0.00,pywws,2013-02-03 12:47:00,
2013-02-03 07:53:00,16.9,9.7,29.96,North,0,0.0,0.0,73,0.00,,,0.00,pywws,2013-02-03 12:53:00,
2013-02-03 07:59:00,17.4,10.3,29.97,North,0,0.0,0.0,73,0.00,,,0.00,pywws,2013-02-03 12:59:00,
2013-02-03 08:04:00,17.6,10.1,29.97,North,0,0.0,0.0,72,0.00,,,0.00,pywws,2013-02-03 13:04:00,
2013-02-03 08:10:00,18.1,10.7,29.96,North,0,0.0,0.0,72,0.00,,,0.00,pywws,2013-02-03 13:10:00,
2013-02-03 08:15:00,18.7,11.2,29.96,North,0,0.0,0.0,72,0.00,,,0.00,pywws,2013-02-03 13:15:00,
2013-02-03 08:21:00,18.9,11.4,29.96,North,0,0.0,0.0,72,0.00,,,0.00,pywws,2013-02-03 13:21:00,
2013-02-03 08:27:00,19.2,11.7,29.96,North,0,0.0,0.0,72,0.00,,,0.00,pywws,2013-02-03 13:27:00,
2013-02-03 08:32:00,19.9,13.6,29.96,North,0,0.0,0.0,76,0.00,,,0.00,pywws,2013-02-03 13:32:00,
2013-02-03 08:38:00,20.7,14.3,29.96,East,90,0.0,0.0,76,0.00,,,0.00,pywws,2013-02-03 13:38:00,
2013-02-03 08:43:00,21.0,14.4,29.95,East,90,0.0,0.0,75,0.00,,,0.00,pywws,2013-02-03 13:43:00,
2013-02-03 08:49:00,22.1,15.1,29.95,East,90,0.0,0.0,74,0.00,,,0.00,pywws,2013-02-03 13:49:00,
2013-02-03 08:55:00,23.0,15.0,29.95,North,0,0.0,0.0,71,0.00,,,0.00,pywws,2013-02-03 13:55:00,
2013-02-03 09:00:00,23.4,15.0,29.94,East,90,0.0,0.0,70,0.00,,,0.00,pywws,2013-02-03 14:00:00,
2013-02-03 09:06:00,23.7,14.4,29.94,North,0,0.0,0.0,67,0.00,,,0.00,pywws,2013-02-03 14:06:00,
2013-02-03 09:11:00,24.4,14.7,29.94,East,90,0.0,0.0,66,0.00,,,0.00,pywws,2013-02-03 14:11:00,
2013-02-03 09:17:00,24.4,14.0,29.94,North,0,0.0,3.8,64,0.00,,,0.00,pywws,2013-02-03 14:17:00,
2013-02-03 09:23:00,24.1,13.7,29.94,North,0,0.0,0.0,64,0.00,,,0.00,pywws,2013-02-03 14:23:00,
2013-02-03 09:28:00,24.6,14.2,29.94,North,0,0.0,0.0,64,0.00,,,0.00,pywws,2013-02-03 14:28:00,
2013-02-03 09:34:00,24.1,13.3,29.94,East,90,0.0,0.0,63,0.00,,,0.00,pywws,2013-02-03 14:34:00,
2013-02-03 09:39:00,24.4,13.7,29.94,North,0,0.0,0.0,63,0.00,,,0.00,pywws,2013-02-03 14:39:00,
2013-02-03 09:45:00,24.3,13.5,29.94,North,0,0.0,0.0,63,0.00,,,0.00,pywws,2013-02-03 14:45:00,
2013-02-03 09:51:00,24.3,13.5,29.93,North,0,0.0,0.0,63,0.00,,,0.00,pywws,2013-02-03 14:51:00,
2013-02-03 09:56:00,24.3,13.5,29.93,East,90,0.0,0.7,63,0.00,,,0.00,pywws,2013-02-03 14:56:00,
2013-02-03 10:02:00,24.1,13.3,29.93,East,90,0.0,0.0,63,0.00,,,0.00,pywws,2013-02-03 15:02:00,
2013-02-03 10:07:00,24.8,13.7,29.93,North,0,0.0,0.0,62,0.00,,,0.00,pywws,2013-02-03 15:07:00,
2013-02-03 10:13:00,25.0,13.8,29.93,NW,315,0.0,0.0,62,0.00,,,0.00,pywws,2013-02-03 15:13:00,
2013-02-03 10:19:00,24.1,12.6,29.92,NE,45,0.0,0.0,61,0.00,,,0.00,pywws,2013-02-03 15:19:00,
2013-02-03 10:24:00,25.2,13.6,29.92,East,90,0.0,0.0,61,0.00,,,0.00,pywws,2013-02-03 15:24:00,
2013-02-03 10:30:00,25.9,14.3,29.92,East,90,0.0,0.0,61,0.00,,,0.00,pywws,2013-02-03 15:30:00,
2013-02-03 10:35:00,24.8,12.5,29.91,East,90,0.0,0.0,59,0.00,,,0.00,pywws,2013-02-03 15:35:00,
2013-02-03 10:41:00,25.0,13.1,29.91,North,0,0.0,0.0,60,0.00,,,0.00,pywws,2013-02-03 15:41:00,
2013-02-03 10:47:00,25.7,13.8,29.91,North,0,0.0,0.0,60,0.00,,,0.00,pywws,2013-02-03 15:47:00,
2013-02-03 10:52:00,25.9,13.2,29.91,North,0,0.0,0.0,58,0.00,,,0.00,pywws,2013-02-03 15:52:00,
2013-02-03 10:58:00,27.3,14.1,29.91,North,0,0.0,0.0,57,0.00,,,0.00,pywws,2013-02-03 15:58:00,
2013-02-03 11:03:00,26.1,12.5,29.90,South,180,0.0,0.0,56,0.00,,,0.00,pywws,2013-02-03 16:03:00,
2013-02-03 11:09:00,26.6,13.0,29.90,North,0,0.0,0.0,56,0.00,,,0.00,pywws,2013-02-03 16:09:00,
2013-02-03 11:15:00,26.6,13.0,29.89,North,0,0.0,0.0,56,0.00,,,0.00,pywws,2013-02-03 16:15:00,
2013-02-03 11:20:00,27.0,13.4,29.89,East,90,0.0,0.0,56,0.00,,,0.00,pywws,2013-02-03 16:20:00,
2013-02-03 11:26:00,26.1,12.9,29.88,North,0,0.0,0.0,57,0.00,,,0.00,pywws,2013-02-03 16:26:00,
2013-02-03 11:31:00,26.1,12.9,29.88,North,0,0.0,0.0,57,0.00,,,0.00,pywws,2013-02-03 16:31:00,
2013-02-03 11:37:00,26.4,13.7,29.88,NW,315,0.0,0.0,58,0.00,,,0.00,pywws,2013-02-03 16:37:00,
2013-02-03 11:43:00,26.2,13.1,29.87,West,270,0.0,0.0,57,0.00,,,0.00,pywws,2013-02-03 16:43:00,
2013-02-03 11:48:00,26.8,13.2,29.86,NW,315,0.0,0.0,56,0.00,,,0.00,pywws,2013-02-03 16:48:00,
2013-02-03 11:54:00,27.0,13.4,29.86,West,270,0.0,0.0,56,0.00,,,0.00,pywws,2013-02-03 16:54:00,
2013-02-03 11:59:00,27.7,14.1,29.85,West,270,0.0,0.0,56,0.00,,,0.00,pywws,2013-02-03 16:59:00,
2013-02-03 12:05:00,26.2,12.7,29.85,North,0,0.0,0.0,56,0.00,,,0.00,pywws,2013-02-03 17:05:00,
2013-02-03 12:11:00,27.3,13.7,29.84,West,270,0.0,0.0,56,0.00,,,0.00,pywws,2013-02-03 17:11:00,
2013-02-03 12:16:00,26.4,12.9,29.84,North,0,0.0,0.0,56,0.00,,,0.00,pywws,2013-02-03 17:16:00,
2013-02-03 12:22:00,26.6,13.0,29.83,East,90,0.0,0.0,56,0.00,,,0.00,pywws,2013-02-03 17:22:00,
2013-02-03 12:27:00,26.6,13.4,29.83,NE,45,0.0,0.0,57,0.00,,,0.00,pywws,2013-02-03 17:27:00,
2013-02-03 12:33:00,26.6,13.4,29.83,NW,315,0.0,0.7,57,0.00,,,0.00,pywws,2013-02-03 17:33:00,
2013-02-03 12:39:00,26.6,13.4,29.83,North,0,0.0,0.0,57,0.00,,,0.00,pywws,2013-02-03 17:39:00,
2013-02-03 12:44:00,27.3,14.5,29.83,NW,315,0.0,0.0,58,0.00,,,0.00,pywws,2013-02-03 17:44:00,
2013-02-03 12:50:00,26.8,13.6,29.83,NW,315,0.0,0.0,57,0.00,,,0.00,pywws,2013-02-03 17:50:00,
2013-02-03 12:55:00,26.4,14.1,29.83,East,90,0.0,0.0,59,0.00,,,0.00,pywws,2013-02-03 17:55:00,
2013-02-03 13:01:00,26.8,14.0,29.82,North,0,0.0,0.0,58,0.00,,,0.00,pywws,2013-02-03 18:01:00,
2013-02-03 13:07:00,26.6,13.8,29.82,West,270,0.0,0.0,58,0.00,,,0.00,pywws,2013-02-03 18:07:00,
2013-02-03 13:12:00,27.0,14.2,29.82,North,0,0.0,0.0,58,0.00,,,0.00,pywws,2013-02-03 18:12:00,
2013-02-03 13:18:00,26.6,13.8,29.82,NE,45,0.0,0.0,58,0.00,,,0.00,pywws,2013-02-03 18:18:00,
2013-02-03 13:23:00,26.4,14.1,29.81,NE,45,0.0,0.0,59,0.00,,,0.00,pywws,2013-02-03 18:23:00,
2013-02-03 13:29:00,27.1,14.3,29.81,NE,45,0.0,0.0,58,0.00,,,0.00,pywws,2013-02-03 18:29:00,
2013-02-03 13:35:00,26.6,13.8,29.80,East,90,0.0,0.0,58,0.00,,,0.00,pywws,2013-02-03 18:35:00,
2013-02-03 13:40:00,27.3,14.5,29.80,South,180,0.0,0.0,58,0.00,,,0.00,pywws,2013-02-03 18:40:00,
2013-02-03 13:46:00,26.8,13.6,29.80,North,0,0.0,0.0,57,0.00,,,0.00,pywws,2013-02-03 18:46:00,
2013-02-03 13:51:00,27.0,13.8,29.80,North,0,0.0,0.0,57,0.00,,,0.00,pywws,2013-02-03 18:51:00,
2013-02-03 13:57:00,27.5,13.9,29.80,West,270,0.0,0.0,56,0.00,,,0.00,pywws,2013-02-03 18:57:00,
2013-02-03 14:03:00,27.7,14.1,29.80,North,0,0.0,0.0,56,0.00,,,0.00,pywws,2013-02-03 19:03:00,
2013-02-03 14:08:00,27.1,13.1,29.80,NE,45,0.0,0.0,55,0.00,,,0.00,pywws,2013-02-03 19:08:00,
2013-02-03 14:14:00,27.3,13.7,29.80,SE,135,0.0,0.0,56,0.00,,,0.00,pywws,2013-02-03 19:14:00,
2013-02-03 14:20:00,27.3,13.7,29.79,North,0,0.0,0.0,56,0.00,,,0.00,pywws,2013-02-03 19:20:00,
2013-02-03 14:26:00,27.3,13.7,29.79,North,0,0.0,0.0,56,0.00,,,0.00,pywws,2013-02-03 19:26:00,
2013-02-03 14:31:00,26.8,13.2,29.79,West,270,0.0,0.0,56,0.00,,,0.00,pywws,2013-02-03 19:31:00,
2013-02-03 14:37:00,27.0,13.8,29.79,North,0,0.0,0.0,57,0.00,,,0.00,pywws,2013-02-03 19:37:00,
2013-02-03 14:43:00,27.0,13.8,29.79,North,0,0.0,0.0,57,0.00,,,0.00,pywws,2013-02-03 19:43:00,
2013-02-03 14:48:00,26.8,13.6,29.79,West,270,0.0,0.0,57,0.00,,,0.00,pywws,2013-02-03 19:48:00,
2013-02-03 14:54:00,26.8,14.0,29.79,NE,45,0.0,0.0,58,0.00,,,0.00,pywws,2013-02-03 19:54:00,
2013-02-03 14:59:00,26.8,14.0,29.79,North,0,0.0,0.0,58,0.00,,,0.00,pywws,2013-02-03 19:59:00,
2013-02-03 15:07:00,26.8,14.0,29.78,West,270,0.0,0.0,58,0.00,,,0.00,pywws,2013-02-03 20:07:00,
2013-02-03 15:12:00,26.8,13.6,29.78,West,270,0.0,0.0,57,0.00,,,0.00,pywws,2013-02-03 20:12:00,
2013-02-03 15:19:00,27.1,14.3,29.78,North,0,0.0,0.0,58,0.00,,,0.00,pywws,2013-02-03 20:19:00,
2013-02-03 15:24:00,26.8,14.0,29.78,East,90,0.0,0.0,58,0.00,,,0.00,pywws,2013-02-03 20:24:00,
2013-02-03 15:30:00,27.0,14.2,29.78,North,0,0.0,0.0,58,0.00,,,0.00,pywws,2013-02-03 20:30:00,
2013-02-03 15:35:00,27.1,14.7,29.78,North,0,0.0,0.0,59,0.00,,,0.00,pywws,2013-02-03 20:35:00,
2013-02-03 15:41:00,26.8,14.0,29.78,East,90,0.0,0.0,58,0.00,,,0.00,pywws,2013-02-03 20:41:00,
2013-02-03 15:47:00,26.8,14.0,29.78,NE,45,0.0,0.0,58,0.00,,,0.00,pywws,2013-02-03 20:47:00,
2013-02-03 15:52:00,26.4,14.1,29.78,North,0,0.0,0.0,59,0.00,,,0.00,pywws,2013-02-03 20:52:00,
2013-02-03 15:58:00,26.6,14.2,29.78,North,0,0.0,0.0,59,0.00,,,0.00,pywws,2013-02-03 20:58:00,
2013-02-03 16:03:00,26.6,14.2,29.77,NW,315,0.0,0.0,59,0.00,,,0.00,pywws,2013-02-03 21:03:00,
2013-02-03 16:09:00,26.4,14.4,29.77,East,90,0.0,0.0,60,0.00,,,0.00,pywws,2013-02-03 21:09:00,
2013-02-03 16:15:00,26.4,14.8,29.77,NW,315,0.0,0.0,61,0.00,,,0.00,pywws,2013-02-03 21:15:00,
2013-02-03 16:21:00,26.4,14.8,29.77,North,0,0.0,0.0,61,0.00,,,0.00,pywws,2013-02-03 21:21:00,
2013-02-03 16:27:00,26.2,15.0,29.77,NE,45,0.0,0.0,62,0.00,,,0.00,pywws,2013-02-03 21:27:00,
2013-02-03 16:34:00,26.2,15.0,29.76,NE,45,0.0,0.0,62,0.00,,,0.00,pywws,2013-02-03 21:34:00,
2013-02-03 16:39:00,26.2,15.0,29.76,East,90,0.0,0.0,62,0.00,,,0.00,pywws,2013-02-03 21:39:00,
2013-02-03 16:45:00,26.2,15.0,29.76,North,0,0.0,0.0,62,0.00,,,0.00,pywws,2013-02-03 21:45:00,
2013-02-03 16:51:00,26.1,15.2,29.76,South,180,0.0,0.0,63,0.00,,,0.00,pywws,2013-02-03 21:51:00,
2013-02-03 16:56:00,26.2,15.0,29.76,North,0,0.0,0.0,62,0.00,,,0.00,pywws,2013-02-03 21:56:00,
2013-02-03 17:03:00,26.1,14.8,29.75,East,90,0.0,0.0,62,0.00,,,0.00,pywws,2013-02-03 22:03:00,
2013-02-03 17:08:00,26.1,14.8,29.75,North,0,0.0,0.0,62,0.00,,,0.00,pywws,2013-02-03 22:08:00,
2013-02-03 17:14:00,26.1,14.8,29.75,West,270,0.0,0.0,62,0.00,,,0.00,pywws,2013-02-03 22:14:00,
2013-02-03 17:19:00,26.1,14.8,29.75,North,0,0.0,0.0,62,0.00,,,0.00,pywws,2013-02-03 22:19:00,
2013-02-03 17:25:00,26.1,14.8,29.75,West,270,0.0,0.0,62,0.00,,,0.00,pywws,2013-02-03 22:25:00,
2013-02-03 17:31:00,26.1,14.8,29.75,NE,45,0.0,0.0,62,0.00,,,0.00,pywws,2013-02-03 22:31:00,
2013-02-03 17:37:00,26.1,14.8,29.75,East,90,0.0,0.0,62,0.00,,,0.00,pywws,2013-02-03 22:37:00,
2013-02-03 17:43:00,26.1,14.8,29.75,East,90,0.0,0.0,62,0.00,,,0.00,pywws,2013-02-03 22:43:00,
2013-02-03 17:49:00,26.1,14.8,29.75,North,0,0.0,0.0,62,0.00,,,0.00,pywws,2013-02-03 22:49:00,
2013-02-03 17:55:00,25.9,14.7,29.76,North,0,0.0,0.0,62,0.00,,,0.00,pywws,2013-02-03 22:55:00,
2013-02-03 18:00:00,25.9,15.0,29.76,North,0,0.0,0.0,63,0.00,,,0.00,pywws,2013-02-03 23:00:00,
2013-02-03 18:06:00,25.7,14.9,29.76,North,0,0.0,0.0,63,0.00,,,0.00,pywws,2013-02-03 23:06:00,
2013-02-03 18:11:00,25.7,14.9,29.76,East,90,0.0,0.0,63,0.00,,,0.00,pywws,2013-02-03 23:11:00,
2013-02-03 18:18:00,25.5,15.1,29.76,East,90,0.0,0.0,64,0.00,,,0.00,pywws,2013-02-03 23:18:00,
2013-02-03 18:23:00,25.3,15.6,29.76,North,0,0.0,0.0,66,0.00,,,0.00,pywws,2013-02-03 23:23:00,
2013-02-03 18:29:00,25.3,15.6,29.77,SE,135,0.0,0.7,66,0.00,,,0.00,pywws,2013-02-03 23:29:00,
2013-02-03 18:35:00,25.2,15.8,29.77,NE,45,0.0,0.0,67,0.00,,,0.00,pywws,2013-02-03 23:35:00,
2013-02-03 18:40:00,25.2,15.8,29.76,North,0,0.0,0.0,67,0.00,,,0.00,pywws,2013-02-03 23:40:00,
2013-02-03 18:46:00,25.2,16.1,29.77,North,0,0.0,0.0,68,0.00,,,0.00,pywws,2013-02-03 23:46:00,
2013-02-03 18:51:00,25.0,16.3,29.77,North,0,0.0,0.0,69,0.00,,,0.00,pywws,2013-02-03 23:51:00,
2013-02-03 18:58:00,25.0,16.3,29.77,NE,45,0.0,0.0,69,0.00,,,0.00,pywws,2013-02-03 23:58:00,
2013-02-03 19:04:00,24.8,16.1,29.77,North,0,0.0,0.0,69,0.00,,,0.00,pywws,2013-02-04 00:04:00,
2013-02-03 19:10:00,24.8,16.4,29.77,NE,45,0.0,0.0,70,0.00,,,0.00,pywws,2013-02-04 00:10:00,
2013-02-03 19:15:00,24.8,16.4,29.77,NE,45,0.0,0.0,70,0.00,,,0.00,pywws,2013-02-04 00:15:00,
2013-02-03 19:21:00,24.6,16.6,29.77,North,0,0.0,0.0,71,0.00,,,0.00,pywws,2013-02-04 00:21:00,
2013-02-03 19:27:00,24.6,16.9,29.77,East,90,0.0,0.0,72,0.00,,,0.00,pywws,2013-02-04 00:27:00,
2013-02-03 19:36:00,24.4,16.7,29.77,East,90,0.0,0.0,72,0.00,,,0.00,pywws,2013-02-04 00:36:00,
2013-02-03 19:43:00,24.3,16.2,29.77,NW,315,0.0,0.0,71,0.00,,,0.00,pywws,2013-02-04 00:43:00,
2013-02-03 19:49:00,24.3,16.2,29.76,East,90,0.0,0.0,71,0.00,,,0.00,pywws,2013-02-04 00:49:00,
2013-02-03 19:56:00,24.3,16.2,29.76,NE,45,0.0,0.0,71,0.00,,,0.00,pywws,2013-02-04 00:56:00,
2013-02-03 20:03:00,24.1,16.1,29.76,North,0,0.0,0.0,71,0.00,,,0.00,pywws,2013-02-04 01:03:00,
2013-02-03 20:09:00,24.1,16.4,29.76,NW,315,0.0,0.0,72,0.00,,,0.00,pywws,2013-02-04 01:09:00,
2013-02-03 20:15:00,24.1,16.4,29.76,East,90,0.0,0.0,72,0.00,,,0.00,pywws,2013-02-04 01:15:00,
2013-02-03 20:21:00,23.9,16.2,29.76,East,90,0.0,0.0,72,0.00,,,0.00,pywws,2013-02-04 01:21:00,
2013-02-03 20:27:00,23.9,16.5,29.76,North,0,0.0,0.0,73,0.00,,,0.00,pywws,2013-02-04 01:27:00,
2013-02-03 20:32:00,23.9,16.5,29.76,West,270,0.0,0.0,73,0.00,,,0.00,pywws,2013-02-04 01:32:00,
2013-02-03 20:38:00,23.7,16.4,29.75,West,270,0.0,0.0,73,0.00,,,0.00,pywws,2013-02-04 01:38:00,
2013-02-03 20:44:00,23.7,16.4,29.75,West,270,0.0,0.0,73,0.00,,,0.00,pywws,2013-02-04 01:44:00,
2013-02-03 20:51:00,23.7,16.4,29.76,West,270,0.0,0.0,73,0.00,,,0.00,pywws,2013-02-04 01:51:00,
2013-02-03 20:56:00,23.7,16.4,29.75,West,270,0.0,0.0,73,0.00,,,0.00,pywws,2013-02-04 01:56:00,
2013-02-03 21:02:00,23.7,16.4,29.75,West,270,0.0,0.0,73,0.00,,,0.00,pywws,2013-02-04 02:02:00,
2013-02-03 21:07:00,23.7,16.4,29.75,West,270,0.0,0.0,73,0.00,,,0.00,pywws,2013-02-04 02:07:00,
2013-02-03 21:13:00,23.5,16.5,29.75,West,270,0.0,0.0,74,0.00,,,0.00,pywws,2013-02-04 02:13:00,
2013-02-03 21:19:00,23.5,16.5,29.75,West,270,0.0,0.0,74,0.00,,,0.00,pywws,2013-02-04 02:19:00,
2013-02-03 21:24:00,23.5,16.5,29.75,West,270,0.0,0.0,74,0.00,,,0.00,pywws,2013-02-04 02:24:00,
2013-02-03 21:31:00,23.4,16.3,29.75,West,270,0.0,0.0,74,0.00,,,0.00,pywws,2013-02-04 02:31:00,
2013-02-03 21:37:00,23.5,16.5,29.74,West,270,0.0,0.0,74,0.00,,,0.00,pywws,2013-02-04 02:37:00,
2013-02-03 21:43:00,23.5,16.5,29.74,West,270,0.0,0.0,74,0.00,,,0.00,pywws,2013-02-04 02:43:00,
2013-02-03 21:48:00,23.4,16.3,29.74,West,270,0.0,0.0,74,0.00,,,0.00,pywws,2013-02-04 02:48:00,
2013-02-03 21:54:00,23.4,16.3,29.74,West,270,0.0,0.0,74,0.00,,,0.00,pywws,2013-02-04 02:54:00,
2013-02-03 22:02:00,23.4,16.3,29.74,West,270,0.0,0.0,74,0.00,,,0.00,pywws,2013-02-04 03:02:00,
2013-02-03 22:08:00,23.2,16.1,29.74,West,270,0.0,0.0,74,0.00,,,0.00,pywws,2013-02-04 03:08:00,
2013-02-03 22:14:00,23.0,16.0,29.74,West,270,0.0,0.0,74,0.00,,,0.00,pywws,2013-02-04 03:14:00,
2013-02-03 22:20:00,23.2,16.1,29.74,West,270,0.0,0.0,74,0.00,,,0.00,pywws,2013-02-04 03:20:00,
2013-02-03 22:26:00,23.0,16.0,29.73,West,270,0.0,0.0,74,0.00,,,0.00,pywws,2013-02-04 03:26:00,
2013-02-03 22:32:00,22.5,15.8,29.73,West,270,0.0,0.0,75,0.00,,,0.00,pywws,2013-02-04 03:32:00,
2013-02-03 22:39:00,21.9,15.2,29.73,West,270,0.0,0.0,75,0.00,,,0.00,pywws,2013-02-04 03:39:00,
2013-02-03 22:47:00,21.6,14.9,29.73,West,270,0.0,0.0,75,0.00,,,0.00,pywws,2013-02-04 03:47:00,
2013-02-03 22:53:00,21.4,14.7,29.73,West,270,0.0,0.0,75,0.00,,,0.00,pywws,2013-02-04 03:53:00,
2013-02-03 22:59:00,21.2,14.5,29.73,West,270,0.0,0.0,75,0.00,,,0.00,pywws,2013-02-04 03:59:00,
2013-02-03 23:04:00,21.2,14.5,29.73,West,270,0.0,0.0,75,0.00,,,0.00,pywws,2013-02-04 04:04:00,
2013-02-03 23:11:00,21.2,14.8,29.73,West,270,0.0,0.0,76,0.00,,,0.00,pywws,2013-02-04 04:11:00,
2013-02-03 23:17:00,21.0,15.0,29.73,West,270,0.0,0.0,77,0.00,,,0.00,pywws,2013-02-04 04:17:00,
2013-02-03 23:23:00,20.8,14.8,29.73,West,270,0.0,0.0,77,0.00,,,0.00,pywws,2013-02-04 04:23:00,
2013-02-03 23:28:00,20.7,14.6,29.73,West,270,0.0,0.0,77,0.00,,,0.00,pywws,2013-02-04 04:28:00,
2013-02-03 23:34:00,20.7,14.6,29.73,West,270,0.0,0.0,77,0.00,,,0.00,pywws,2013-02-04 04:34:00,
2013-02-03 23:39:00,20.3,14.3,29.72,West,270,0.0,0.0,77,0.00,,,0.00,pywws,2013-02-04 04:39:00,
2013-02-03 23:45:00,20.3,14.3,29.72,West,270,0.0,0.0,77,0.00,,,0.00,pywws,2013-02-04 04:45:00,
2013-02-03 23:52:00,20.1,14.1,29.73,West,270,0.0,0.0,77,0.00,,,0.00,pywws,2013-02-04 04:52:00,
2013-02-03 23:58:00,19.4,13.4,29.72,West,270,0.0,0.0,77,0.00,,,0.00,pywws,2013-02-04 04:58:00,